createdAt,value
2023-05-24T00:00:33.386Z,100868.75
2023-05-24T00:03:05.319Z,100868.75
2023-05-24T00:05:40.035Z,100875.13
2023-05-24T00:08:11.612Z,100868.75
2023-05-24T00:10:42.374Z,100869.22
2023-05-24T00:13:13.110Z,100871.50
2023-05-24T00:15:43.504Z,100876.59
2023-05-24T00:18:13.876Z,100882.59
2023-05-24T00:20:44.384Z,100889.28
2023-05-24T00:23:15.138Z,100891.75
2023-05-24T00:25:45.253Z,100898.09
2023-05-24T00:28:15.594Z,100900.53
2023-05-24T00:30:46.031Z,100905.25
2023-05-24T00:33:16.441Z,100908.50
2023-05-24T00:35:46.757Z,100911.28
2023-05-24T00:38:17.301Z,100918.44
2023-05-24T00:40:48.002Z,100910.47
2023-05-24T00:43:19.162Z,100929.06
2023-05-24T00:45:49.582Z,100916.81
2023-05-24T00:48:20.055Z,100918.94
2023-05-24T00:50:52.968Z,100928.38
2023-05-24T00:53:24.250Z,100923.81
2023-05-24T00:55:54.164Z,100925.44
2023-05-24T00:58:29.544Z,100928.69
2023-05-24T01:01:04.632Z,100926.72
2023-05-24T01:03:36.283Z,100926.34
2023-05-24T01:06:09.666Z,100931.59
2023-05-24T01:08:42.669Z,100935.81
2023-05-24T01:11:20.715Z,100933.41
2023-05-24T01:13:56.498Z,100942.31
2023-05-24T01:16:49.024Z,100942.31
2023-05-24T01:19:37.776Z,100950.78
2023-05-24T01:22:36.166Z,100946.72
2023-05-24T01:25:13.515Z,100960.59
2023-05-24T01:27:45.782Z,100954.38
2023-05-24T01:30:16.900Z,100961.72
2023-05-24T01:32:47.519Z,100967.59
2023-05-24T01:35:17.890Z,100968.25
2023-05-24T01:37:48.256Z,100970.53
2023-05-24T01:40:19.244Z,100972.31
2023-05-24T01:42:59.817Z,100975.91
2023-05-24T01:45:36.539Z,100972.00
2023-05-24T01:48:44.276Z,100980.94
2023-05-24T01:51:18.626Z,100988.16
2023-05-24T01:53:52.009Z,100994.97
2023-05-24T01:56:24.321Z,101003.31
2023-05-24T01:58:59.441Z,100999.88
2023-05-24T02:01:30.540Z,101003.78
2023-05-24T02:04:02.870Z,101016.16
2023-05-24T02:06:33.260Z,101011.75
2023-05-24T02:09:03.790Z,101010.59
2023-05-24T02:11:34.021Z,101006.69
2023-05-24T02:14:04.284Z,101003.91
2023-05-24T02:16:35.650Z,101011.91
2023-05-24T02:19:06.182Z,101020.25
2023-05-24T02:21:36.327Z,101023.94
2023-05-24T02:24:06.946Z,101017.78
2023-05-24T02:26:37.317Z,101019.53
2023-05-24T02:29:09.896Z,101034.91
2023-05-24T02:31:41.415Z,101027.72
2023-05-24T02:34:11.950Z,101027.72
2023-05-24T02:36:42.329Z,101039.78
2023-05-24T02:39:12.990Z,101029.84
2023-05-24T02:41:43.655Z,101030.63
2023-05-24T02:44:14.475Z,101024.16
2023-05-24T02:46:44.942Z,101025.91
2023-05-24T02:49:15.566Z,101025.09
2023-05-24T02:51:46.302Z,101021.16
2023-05-24T02:54:16.802Z,101006.16
2023-05-24T02:56:47.312Z,101007.47
2023-05-24T02:59:19.997Z,101007.47
2023-05-24T03:01:51.652Z,101010.38
2023-05-24T03:04:22.079Z,101006.78
2023-05-24T03:06:52.415Z,100998.94
2023-05-24T03:09:22.932Z,100998.13
2023-05-24T03:11:55.270Z,101011.66
2023-05-24T03:14:27.419Z,101015.56
2023-05-24T03:16:59.595Z,101007.25
2023-05-24T03:19:30.424Z,101011.66
2023-05-24T03:22:01.033Z,101009.69
2023-05-24T03:24:31.431Z,101000.56
2023-05-24T03:27:05.006Z,101006.94
2023-05-24T03:29:35.440Z,100993.53
2023-05-24T03:32:06.706Z,101003.81
2023-05-24T03:34:37.179Z,100994.47
2023-05-24T03:37:08.101Z,100985.66
2023-05-24T03:39:40.392Z,100983.25
2023-05-24T03:42:36.959Z,100981.44
2023-05-24T03:45:12.068Z,100973.59
2023-05-24T03:47:42.572Z,100968.34
2023-05-24T03:50:13.270Z,100968.03
2023-05-24T03:52:44.829Z,100961.19
2023-05-24T03:55:15.214Z,100958.56
2023-05-24T03:57:45.634Z,100962.00
2023-05-24T04:00:16.521Z,100957.59
2023-05-24T04:02:50.789Z,100954.63
2023-05-24T04:05:21.233Z,100957.06
2023-05-24T04:07:51.681Z,100949.41
2023-05-24T04:10:22.375Z,100951.38
2023-05-24T04:12:53.068Z,100947.13
2023-05-24T04:15:23.741Z,100952.66
2023-05-24T04:17:57.985Z,100949.09
2023-05-24T04:20:30.153Z,100941.91
2023-05-24T04:23:01.358Z,100938.19
2023-05-24T04:25:32.525Z,100938.00
2023-05-24T04:28:07.558Z,100933.91
2023-05-24T04:30:39.209Z,100938.00
2023-05-24T04:33:10.709Z,100937.66
2023-05-24T04:35:43.151Z,100936.63
2023-05-24T04:38:16.187Z,100926.56
2023-05-24T04:40:46.524Z,100926.44
2023-05-24T04:43:17.009Z,100924.44
2023-05-24T04:45:47.229Z,100916.72
2023-05-24T04:48:17.745Z,100924.38
2023-05-24T04:50:48.056Z,100913.28
2023-05-24T04:53:18.538Z,100911.19
2023-05-24T04:55:49.270Z,100901.03
2023-05-24T04:58:20.227Z,100900.69
2023-05-24T05:00:50.784Z,100897.91
2023-05-24T05:03:21.343Z,100893.19
2023-05-24T05:05:52.270Z,100885.66
2023-05-24T05:08:23.144Z,100879.91
2023-05-24T05:10:53.437Z,100879.09
2023-05-24T05:13:23.908Z,100871.94
2023-05-24T05:15:54.204Z,100859.69
2023-05-24T05:18:24.663Z,100851.81
2023-05-24T05:20:54.845Z,100855.44
2023-05-24T05:23:25.181Z,100852.31
2023-05-24T05:25:55.500Z,100846.06
2023-05-24T05:28:25.856Z,100839.97
2023-05-24T05:30:59.272Z,100841.47
2023-05-24T05:33:29.617Z,100824.00
2023-05-24T05:35:59.974Z,100815.56
2023-05-24T05:38:30.257Z,100807.69
2023-05-24T05:41:00.522Z,100799.72
2023-05-24T05:43:31.516Z,100794.28
2023-05-24T05:46:03.406Z,100795.91
2023-05-24T05:48:33.768Z,100790.00
2023-05-24T05:51:04.206Z,100769.78
2023-05-24T05:53:37.066Z,100770.69
2023-05-24T05:56:07.591Z,100769.91
2023-05-24T05:58:37.877Z,100756.81
2023-05-24T06:01:08.256Z,100755.09
2023-05-24T06:03:38.915Z,100753.00
2023-05-24T06:06:11.288Z,100751.06
2023-05-24T06:08:43.205Z,100749.91
2023-05-24T06:11:13.541Z,100747.13
2023-05-24T06:13:43.937Z,100739.47
2023-05-24T06:16:14.240Z,100733.47
2023-05-24T06:18:57.172Z,100727.34
2023-05-24T06:21:32.586Z,100719.13
2023-05-24T06:24:04.856Z,100711.03
2023-05-24T06:26:35.262Z,100696.03
2023-05-24T06:29:05.560Z,100690.47
2023-05-24T06:31:35.884Z,100670.69
2023-05-24T06:34:06.392Z,100671.50
2023-05-24T06:36:38.282Z,100666.75
2023-05-24T06:39:08.615Z,100656.47
2023-05-24T06:41:39.786Z,100651.38
2023-05-24T06:44:10.071Z,100649.06
2023-05-24T06:46:40.381Z,100637.25
2023-05-24T06:49:11.007Z,100632.88
2023-05-24T06:51:41.382Z,100623.84
2023-05-24T06:54:13.021Z,100613.91
2023-05-24T06:56:43.319Z,100607.56
2023-05-24T06:59:13.678Z,100600.81
2023-05-24T07:01:45.341Z,100594.47
2023-05-24T07:04:16.030Z,100591.69
2023-05-24T07:06:46.301Z,100582.69
2023-05-24T07:09:16.787Z,100589.16
2023-05-24T07:11:47.237Z,100589.16
2023-05-24T07:14:17.870Z,100579.22
2023-05-24T07:16:49.155Z,100581.16
2023-05-24T07:19:19.679Z,100576.84
2023-05-24T07:21:49.867Z,100563.44
2023-05-24T07:24:20.360Z,100550.72
2023-05-24T07:26:50.674Z,100552.81
2023-05-24T07:29:21.113Z,100549.22
2023-05-24T07:31:51.337Z,100553.50
2023-05-24T07:34:24.064Z,100544.47
2023-05-24T07:36:54.343Z,100539.19
2023-05-24T07:39:25.729Z,100527.81
2023-05-24T07:41:57.006Z,100515.47
2023-05-24T07:44:27.439Z,100509.53
2023-05-24T07:46:58.192Z,100499.25
2023-05-24T07:49:28.693Z,100498.09
2023-05-24T07:52:01.977Z,100492.88
2023-05-24T07:54:32.307Z,100486.19
2023-05-24T07:57:02.702Z,100475.53
2023-05-24T07:59:33.098Z,100468.03
2023-05-24T08:02:07.836Z,100465.25
2023-05-24T08:04:38.297Z,100476.44
2023-05-24T08:07:10.877Z,100470.19
2023-05-24T08:09:41.427Z,100466.69
2023-05-24T08:12:11.765Z,100461.13
2023-05-24T08:14:42.052Z,100468.56
2023-05-24T08:17:12.397Z,100454.06
2023-05-24T08:19:42.701Z,100464.81
2023-05-24T08:22:12.802Z,100452.09
2023-05-24T08:24:43.228Z,100454.41
2023-05-24T08:27:14.283Z,100444.22
2023-05-24T08:29:44.559Z,100441.22
2023-05-24T08:32:14.888Z,100439.94
2023-05-24T08:34:45.116Z,100434.06
2023-05-24T08:37:17.754Z,100434.06
2023-05-24T08:39:48.277Z,100436.38
2023-05-24T08:42:19.738Z,100425.94
2023-05-24T08:45:07.444Z,100418.31
2023-05-24T08:47:39.750Z,100427.56
2023-05-24T08:50:11.124Z,100424.47
2023-05-24T08:52:43.197Z,100423.75
2023-05-24T08:55:14.023Z,100414.97
2023-05-24T08:57:45.044Z,100429.19
2023-05-24T09:00:16.317Z,100425.28
2023-05-24T09:02:48.813Z,100424.09
2023-05-24T09:05:19.784Z,100442.84
2023-05-24T09:07:51.100Z,100442.84
2023-05-24T09:10:26.903Z,100442.84
2023-05-24T09:13:00.905Z,100448.84
2023-05-24T09:15:31.794Z,100447.94
2023-05-24T09:18:02.098Z,100441.22
2023-05-24T09:20:33.502Z,100437.28
2023-05-24T09:23:07.300Z,100444.00
2023-05-24T09:25:37.802Z,100445.72
2023-05-24T09:28:11.603Z,100450.81
2023-05-24T09:30:42.198Z,100448.41
2023-05-24T09:33:13.912Z,100456.59
2023-05-24T09:35:48.864Z,100445.50
2023-05-24T09:38:22.415Z,100441.13
2023-05-24T09:41:10.690Z,100426.41
2023-05-24T09:43:52.159Z,100417.63
2023-05-24T09:46:22.774Z,100419.00
2023-05-24T09:49:05.905Z,100419.09
2023-05-24T09:51:41.673Z,100423.94
2023-05-24T09:54:12.268Z,100417.56
2023-05-24T09:56:43.078Z,100416.06
2023-05-24T09:59:13.575Z,100413.28
2023-05-24T10:01:44.081Z,100424.84
2023-05-24T10:04:15.085Z,100412.91
2023-05-24T10:06:46.388Z,100408.97
2023-05-24T10:09:17.081Z,100416.94
2023-05-24T10:11:48.333Z,100413.00
2023-05-24T10:14:20.597Z,100415.00
2023-05-24T10:16:50.929Z,100420.16
2023-05-24T10:19:21.137Z,100434.44
2023-05-24T10:21:52.583Z,100428.03
2023-05-24T10:24:28.801Z,100430.50
2023-05-24T10:27:01.235Z,100440.06
2023-05-24T10:29:53.814Z,100442.06
2023-05-24T10:32:27.012Z,100442.84
2023-05-24T10:34:58.022Z,100446.91
2023-05-24T10:37:32.613Z,100442.06
2023-05-24T10:40:03.634Z,100446.44
2023-05-24T10:42:35.661Z,100463.56
2023-05-24T10:45:24.316Z,100461.50
2023-05-24T10:47:55.820Z,100470.28
2023-05-24T10:50:26.410Z,100469.13
2023-05-24T10:53:15.539Z,100471.06
2023-05-24T10:55:57.683Z,100474.22
2023-05-24T10:58:48.644Z,100476.53
2023-05-24T11:01:34.378Z,100474.22
2023-05-24T11:04:21.699Z,100472.50
2023-05-24T11:07:06.359Z,100493.13
2023-05-24T11:09:37.329Z,100507.00
2023-05-24T11:12:11.799Z,100520.88
2023-05-24T11:14:42.861Z,100547.84
2023-05-24T11:17:13.202Z,100560.56
2023-05-24T11:19:55.230Z,100586.28
2023-05-24T11:22:27.881Z,100596.69
2023-05-24T11:25:00.293Z,100604.09
2023-05-24T11:27:31.338Z,100607.13
2023-05-24T11:30:02.158Z,100606.22
2023-05-24T11:32:32.475Z,100604.22
2023-05-24T11:35:03.250Z,100590.34
2023-05-24T11:37:45.554Z,100592.53
2023-05-24T11:40:18.654Z,100602.50
2023-05-24T11:42:53.139Z,100621.94
2023-05-24T11:45:24.418Z,100635.34
2023-05-24T11:47:54.364Z,100631.41
2023-05-24T11:50:28.815Z,100638.38
2023-05-24T11:53:06.041Z,100665.34
2023-05-24T11:55:37.455Z,100737.63
2023-05-24T11:58:14.202Z,100780.88
2023-05-24T12:00:45.864Z,100759.63
2023-05-24T12:03:16.347Z,100749.09
2023-05-24T12:05:47.584Z,100747.81
2023-05-24T12:08:18.261Z,100736.97
2023-05-24T12:10:51.163Z,100758.69
2023-05-24T12:13:26.497Z,100744.34
2023-05-24T12:15:58.386Z,100748.97
2023-05-24T12:18:29.920Z,100745.72
2023-05-24T12:21:00.503Z,100752.56
2023-05-24T12:23:32.036Z,100754.03
2023-05-24T12:26:02.946Z,100750.84
2023-05-24T12:28:41.663Z,100730.47
2023-05-24T12:31:12.422Z,100728.16
2023-05-24T12:33:42.780Z,100729.66
2023-05-24T12:36:13.989Z,100727.44
2023-05-24T12:38:44.299Z,100704.75
2023-05-24T13:04:48.953Z,100781.78
2023-05-24T13:07:19.543Z,100783.31
2023-05-24T13:09:49.956Z,100766.00
2023-05-24T13:12:20.361Z,100767.16
2023-05-24T13:14:52.865Z,100758.84
2023-05-24T13:17:23.635Z,100771.69
2023-05-24T13:19:54.376Z,100773.09
2023-05-24T13:22:24.773Z,100771.44
2023-05-24T13:24:55.699Z,100771.22
2023-05-24T13:27:26.631Z,100767.22
2023-05-24T13:30:00.928Z,100775.53
2023-05-24T13:32:32.136Z,100774.31
2023-05-24T13:35:03.239Z,100767.63
2023-05-24T13:37:35.417Z,100759.66
2023-05-24T13:40:06.772Z,100759.38
2023-05-24T13:42:37.597Z,100757.09
2023-05-24T13:45:08.891Z,100768.06
2023-05-24T13:47:41.226Z,100755.75
2023-05-24T13:50:12.593Z,100772.38
2023-05-24T13:52:42.999Z,100774.13
2023-05-24T13:55:13.497Z,100775.88
2023-05-24T13:57:51.676Z,100788.72
2023-05-24T14:00:23.067Z,100782.50
2023-05-24T14:02:54.218Z,100785.41
2023-05-24T14:05:27.786Z,100782.38
2023-05-24T14:08:00.526Z,100781.66
2023-05-24T14:10:31.062Z,100791.69
2023-05-24T14:13:20.587Z,100796.44
2023-05-24T14:15:52.162Z,100798.84
2023-05-24T14:18:22.873Z,100806.50
2023-05-24T14:20:53.537Z,100816.75
2023-05-24T14:23:24.107Z,100819.50
2023-05-24T14:25:54.677Z,100823.44
2023-05-24T14:28:25.177Z,100818.38
2023-05-24T14:30:55.523Z,100827.34
2023-05-24T14:33:27.212Z,100825.38
2023-05-24T14:35:57.712Z,100825.69
2023-05-24T14:38:28.327Z,100832.16
2023-05-24T14:41:00.567Z,100834.97
2023-05-24T14:43:31.111Z,100839.84
2023-05-24T14:46:01.635Z,100851.84
2023-05-24T14:48:32.143Z,100847.81
2023-05-24T14:51:02.405Z,100850.59
2023-05-24T14:53:32.788Z,100853.34
2023-05-24T14:56:03.622Z,100860.84
2023-05-24T14:58:33.958Z,100859.84
2023-05-24T15:01:05.525Z,100861.00
2023-05-24T15:03:36.032Z,100867.03
2023-05-24T15:06:08.004Z,100872.41
2023-05-24T15:08:38.395Z,100867.22
2023-05-24T15:11:09.051Z,100866.28
2023-05-24T15:13:40.862Z,100870.78
2023-05-24T15:16:11.664Z,100876.03
2023-05-24T15:18:42.068Z,100873.44
2023-05-24T15:21:12.560Z,100870.00
2023-05-24T15:23:42.823Z,100869.53
2023-05-24T15:26:13.588Z,100877.97
2023-05-24T15:28:43.841Z,100877.84
2023-05-24T15:31:14.206Z,100877.84
2023-05-24T15:33:44.633Z,100871.16
2023-05-24T15:36:16.793Z,100875.06
2023-05-24T15:38:47.349Z,100882.38
2023-05-24T15:41:17.880Z,100874.72
2023-05-24T15:43:48.398Z,100878.78
2023-05-24T15:46:19.031Z,100869.09
2023-05-24T15:48:49.678Z,100872.69
2023-05-24T15:51:53.600Z,100871.88
2023-05-24T15:54:10.312Z,100877.09
2023-05-24T15:56:40.617Z,100872.81
2023-05-24T15:59:10.921Z,100888.66
2023-05-24T16:01:41.344Z,100879.50
2023-05-24T16:04:11.831Z,100894.22
2023-05-24T16:06:42.232Z,100891.09
2023-05-24T16:09:12.540Z,100898.13
2023-05-24T16:11:43.277Z,100904.47
2023-05-24T16:14:13.884Z,100896.63
2023-05-24T16:16:45.096Z,100896.63
2023-05-24T16:19:15.667Z,100901.03
2023-05-24T16:21:45.969Z,100890.59
2023-05-24T16:24:16.321Z,100892.72
2023-05-24T16:26:46.688Z,100891.09
2023-05-24T16:29:19.150Z,100895.00
2023-05-24T16:31:49.645Z,100892.59
2023-05-24T16:34:19.890Z,100889.81
2023-05-24T16:36:50.321Z,100901.72
2023-05-24T16:39:20.762Z,100909.72
2023-05-24T16:41:50.994Z,100906.47
2023-05-24T16:44:21.412Z,100912.31
2023-05-24T16:46:51.705Z,100919.50
2023-05-24T16:49:22.074Z,100914.09
2023-05-24T16:51:52.250Z,100913.63
2023-05-24T16:54:22.637Z,100902.53
2023-05-24T16:56:56.176Z,100908.88
2023-05-24T16:59:26.434Z,100906.94
2023-05-24T17:01:56.857Z,100903.81
2023-05-24T17:04:27.424Z,100912.59
2023-05-24T17:06:57.766Z,100905.44
2023-05-24T17:09:28.184Z,100900.69
2023-05-24T17:11:59.619Z,100903.94
2023-05-24T17:14:30.545Z,100898.06
2023-05-24T17:17:01.071Z,100905.56
2023-05-24T17:19:32.395Z,100900.84
2023-05-24T17:22:02.859Z,100905.22
2023-05-24T17:24:33.276Z,100898.53
2023-05-24T17:27:04.418Z,100897.59
2023-05-24T17:29:38.557Z,100902.31
2023-05-24T17:32:09.103Z,100893.19
2023-05-24T17:34:39.644Z,100898.72
2023-05-24T17:37:10.047Z,100899.41
2023-05-24T17:39:41.233Z,100896.28
2023-05-24T17:42:12.454Z,100891.09
2023-05-24T17:44:43.992Z,100888.50
2023-05-24T17:47:14.344Z,100884.59
2023-05-24T17:49:44.486Z,100876.81
2023-05-24T17:52:16.981Z,100870.13
2023-05-24T17:54:47.343Z,100863.78
2023-05-24T17:57:17.496Z,100862.94
2023-05-24T17:59:48.377Z,100843.88
2023-05-24T18:02:18.642Z,100841.78
2023-05-24T18:04:48.974Z,100841.00
2023-05-24T18:07:20.847Z,100838.53
2023-05-24T18:09:51.502Z,100843.75
2023-05-24T18:12:22.035Z,100854.03
2023-05-24T18:14:52.776Z,100860.06
2023-05-24T18:17:23.486Z,100861.88
2023-05-24T18:19:54.018Z,100867.56
2023-05-24T18:22:24.382Z,100848.59
2023-05-24T18:24:54.683Z,100833.94
2023-05-24T18:27:25.052Z,100821.56
2023-05-24T18:29:55.497Z,100809.66
2023-05-24T18:32:25.972Z,100804.78
2023-05-24T18:34:57.415Z,100808.72
2023-05-24T18:37:27.309Z,100809.53
2023-05-24T18:39:57.527Z,100817.38
2023-05-24T18:42:28.104Z,100809.84
2023-05-24T18:44:58.844Z,100803.88
2023-05-24T18:47:30.145Z,100803.88
2023-05-24T18:50:01.988Z,100798.31
2023-05-24T18:52:32.333Z,100793.94
2023-05-24T18:55:02.797Z,100790.69
2023-05-24T18:57:33.780Z,100785.59
2023-05-24T19:00:04.085Z,100779.22
2023-05-24T19:02:34.534Z,100778.44
2023-05-24T19:05:05.459Z,100773.22
2023-05-24T19:07:36.998Z,100779.91
2023-05-24T19:10:07.843Z,100781.06
2023-05-24T19:12:38.097Z,100788.09
2023-05-24T19:15:09.626Z,100780.13
2023-05-24T19:17:39.833Z,100782.09
2023-05-24T19:20:10.575Z,100789.13
2023-05-24T19:22:40.949Z,100780.00
2023-05-24T19:25:11.553Z,100776.53
2023-05-24T19:27:57.854Z,100767.75
2023-05-24T19:30:29.582Z,100776.41
2023-05-24T19:33:00.069Z,100771.91
2023-05-24T19:35:30.536Z,100772.38
2023-05-24T19:38:00.877Z,100765.22
2023-05-24T19:40:31.242Z,100763.22
2023-05-24T19:43:01.717Z,100757.69
2023-05-24T19:45:31.947Z,100753.28
2023-05-24T19:48:02.653Z,100741.41
2023-05-24T19:50:33.475Z,100734.03
2023-05-24T19:53:03.991Z,100730.31
2023-05-24T19:55:34.928Z,100734.72
2023-05-24T19:58:05.220Z,100732.75
2023-05-24T20:00:35.470Z,100745.44
2023-05-24T20:03:06.427Z,100744.47
2023-05-24T20:05:36.745Z,100752.78
2023-05-24T20:08:09.091Z,100749.91
2023-05-24T20:10:41.345Z,100760.31
2023-05-24T20:13:12.872Z,100766.66
2023-05-24T20:15:43.521Z,100777.44
2023-05-24T20:18:13.996Z,100778.56
2023-05-24T20:20:44.432Z,100789.81
2023-05-24T20:23:14.618Z,100784.13
2023-05-24T20:25:46.521Z,100780.69
2023-05-24T20:28:29.604Z,100769.44
2023-05-24T20:31:01.366Z,100765.22
2023-05-24T20:33:31.753Z,100758.84
2023-05-24T20:36:02.142Z,100767.16
2023-05-24T20:38:32.699Z,100763.44
2023-05-24T20:41:02.881Z,100771.41
2023-05-24T20:43:33.051Z,100767.97
2023-05-24T20:46:05.604Z,100766.66
2023-05-24T20:48:36.046Z,100763.44
2023-05-24T20:51:06.466Z,100761.47
2023-05-24T20:53:36.998Z,100760.19
2023-05-24T20:56:07.450Z,100762.97
2023-05-24T20:58:37.868Z,100762.97
2023-05-24T21:01:08.642Z,100761.66
2023-05-24T21:03:39.230Z,100759.84
2023-05-24T21:06:09.791Z,100757.41
2023-05-24T21:08:40.940Z,100753.50
2023-05-24T21:11:10.888Z,100749.78
2023-05-24T21:13:41.191Z,100748.94
2023-05-24T21:16:11.644Z,100735.91
2023-05-24T21:18:42.032Z,100746.66
2023-05-24T21:21:13.399Z,100753.34
2023-05-24T21:23:44.111Z,100740.63
2023-05-24T21:26:14.272Z,100741.47
2023-05-24T21:28:44.371Z,100741.78
2023-05-24T21:31:15.121Z,100741.09
2023-05-24T21:33:48.187Z,100734.41
2023-05-24T21:36:18.534Z,100742.25
2023-05-24T21:38:49.475Z,100748.03
2023-05-24T21:41:19.772Z,100758.56
2023-05-24T21:43:49.927Z,100747.13
2023-05-24T21:46:20.301Z,100742.25
2023-05-24T21:48:51.145Z,100742.59
2023-05-24T21:51:21.479Z,100753.34
2023-05-24T21:53:51.904Z,100754.50
2023-05-24T21:56:22.291Z,100763.97
2023-05-24T21:58:52.793Z,100765.94
2023-05-24T22:01:23.480Z,100767.56
2023-05-24T22:03:55.138Z,100764.66
2023-05-24T22:06:26.365Z,100777.38
2023-05-24T22:08:57.990Z,100773.91
2023-05-24T22:11:29.050Z,100776.66
2023-05-24T22:13:59.261Z,100775.41
2023-05-24T22:16:29.727Z,100776.22
2023-05-24T22:19:00.276Z,100772.75
2023-05-24T22:21:30.645Z,100780.59
2023-05-24T22:24:00.725Z,100779.91
2023-05-24T22:26:30.921Z,100785.00
2023-05-24T22:29:06.730Z,100788.47
2023-05-24T22:31:37.291Z,100787.16
2023-05-24T22:34:08.542Z,100777.81
2023-05-24T22:36:40.257Z,100785.81
2023-05-24T22:39:12.016Z,100797.69
2023-05-24T22:41:42.383Z,100803.94
2023-05-24T22:44:13.614Z,100809.00
2023-05-24T22:47:38.687Z,100816.63
2023-05-24T22:50:10.327Z,100821.72
2023-05-24T22:52:44.793Z,100832.81
2023-05-24T22:55:15.399Z,100828.59
2023-05-24T22:57:45.614Z,100832.88
2023-05-24T23:00:17.538Z,100832.41
2023-05-24T23:02:49.296Z,100830.41
2023-05-24T23:05:19.874Z,100837.94
2023-05-24T23:07:51.755Z,100844.94
2023-05-24T23:10:22.173Z,100843.47
2023-05-24T23:12:52.891Z,100838.25
2023-05-24T23:15:23.299Z,100850.16
2023-05-24T23:17:55.200Z,100850.50
2023-05-24T23:20:25.954Z,100860.91
2023-05-24T23:22:56.471Z,100865.00
2023-05-24T23:25:26.717Z,100871.47
2023-05-24T23:27:57.298Z,100872.47
2023-05-24T23:30:27.930Z,100875.72
2023-05-24T23:33:00.192Z,100872.28
2023-05-24T23:35:30.688Z,100867.94
2023-05-24T23:38:01.216Z,100863.91
2023-05-24T23:40:32.490Z,100874.28
2023-05-24T23:43:02.460Z,100885.53
2023-05-24T23:45:33.075Z,100889.44
2023-05-24T23:48:03.819Z,100896.47
2023-05-24T23:50:42.864Z,100897.59
2023-05-24T23:53:20.784Z,100911.94
2023-05-24T23:55:51.140Z,100903.31
2023-05-24T23:58:21.671Z,100911.63
